Flyingdolphin Xviii — SV9700 — position and weather

sailwx.info

Track history (hours):
 
Tides and Currents Weather Stations Pressure Air Temp Water Temp Dewpoint Dewpoint Depression Visibility Wind Speed Wind Dir Waves Ship Positions

Flyingdolphin Xviii

Last reported at 2018-Apr-24 03:52 UTC. Time now 2018-Apr-24 12:49 UTC.
Position N 37°57' E 023°39'.

Length 36 m; draft 4 m.

Type: Ship. MMSI: 237023700.

Date/timePositionNaut miles runAvg speedWind from/ knotsBaromVisibWave heightAir tempDewpointWater temp
2018-Apr-24 03:52N 37°57' E 023°39'0 0.0
2018-Apr-24 03:30N 37°57' E 023°39'0 0.0
2018-Apr-23 16:01N 37°57' E 023°39'0 1.7
2018-Apr-23 16:00N 37°57' E 023°39'1020.6
2018-Apr-23 15:31N 37°49' E 023°30'917.3
2018-Apr-23 15:00N 37°44' E 023°21'4 7.8
2018-Apr-23 14:30N 37°45' E 023°26'1428.7
2018-Apr-23 14:01N 37°56' E 023°37'1 2.6
2018-Apr-23 13:30N 37°55' E 023°35'1316.4
2018-Apr-23 12:43N 37°45' E 023°26'525.3
2018-Apr-23 12:30N 37°49' E 023°29'1121.4
2018-Apr-23 12:00N 37°57' E 023°39'1121.2
2018-Apr-23 11:30N 37°49' E 023°29'917.9
2018-Apr-23 11:00N 37°43' E 023°21'4 7.8
2018-Apr-23 10:30N 37°45' E 023°25'1530.2
2018-Apr-23 10:00N 37°56' E 023°37'1 2.1
2018-Apr-23 09:30N 37°57' E 023°39'0 0.0
2018-Apr-22 16:10N 37°57' E 023°39'1 7.4
2018-Apr-22 16:01N 37°56' E 023°37'1529.5
2018-Apr-22 15:30N 37°45' E 023°26'4 8.2
2018-Apr-22 15:01N 37°43' E 023°21'918.3
2018-Apr-22 14:31N 37°49' E 023°29'1020.9
2018-Apr-22 14:01N 37°57' E 023°39'3 5.9
2018-Apr-22 13:30N 37°55' E 023°36'1316.5
2018-Apr-22 12:43N 37°45' E 023°25'628.8
2018-Apr-22 12:30N 37°49' E 023°30'1019.3
2018-Apr-22 11:59N 37°57' E 023°39'0 0.0
2018-Apr-22 11:30N 37°57' E 023°39'0 0.0
2018-Apr-22 07:03N 37°57' E 023°39'0 0.2
2018-Apr-22 07:00N 37°57' E 023°39'0 0.0
2018-Apr-22 06:31N 37°57' E 023°39'0 0.5
2018-Apr-22 06:00N 37°57' E 023°38'1326.1
2018-Apr-22 05:31N 37°44' E 023°34'1528.5
2018-Apr-22 04:59N 37°30' E 023°27'712.1
2018-Apr-22 04:22N 37°23' E 023°30'7 0.7
2018-Apr-21 17:06N 37°22' E 023°20'331.9
2018-Apr-21 17:00N 37°21' E 023°24'914.1
2018-Apr-21 16:23N 37°29' E 023°30'512.9
2018-Apr-21 16:01N 37°32' E 023°25'1530.5
2018-Apr-21 15:30N 37°48' E 023°28'1325.0
2018-Apr-21 15:00N 37°57' E 023°39'0 0.0
2018-Apr-21 09:55N 37°57' E 023°39'3 6.9
2018-Apr-21 09:30N 37°56' E 023°35'1318.2
2018-Apr-21 08:46N 37°45' E 023°25'829.6
2018-Apr-21 08:31N 37°52' E 023°29'917.6
2018-Apr-21 08:00N 37°57' E 023°39'1122.5
2018-Apr-21 07:31N 37°49' E 023°28'816.8
2018-Apr-21 07:00N 37°43' E 023°21'4 7.6
2018-Apr-21 06:30N 37°45' E 023°25'1530.3
2018-Apr-21 06:00N 37°56' E 023°38'1 2.6
2018-Apr-21 05:31N 37°56' E 023°36'1416.7
2018-Apr-21 04:41N 37°45' E 023°26'319.5
2018-Apr-21 04:30N 37°48' E 023°28'1224.9
2018-Apr-21 04:00N 37°57' E 023°39'0 0.0
2018-Apr-20 16:06N 37°57' E 023°39'0 0.0
2018-Apr-20 16:00N 37°57' E 023°39'1122.2
2018-Apr-20 15:31N 37°51' E 023°27'816.7
2018-Apr-20 15:00N 37°44' E 023°21'3 6.5
2018-Apr-20 14:30N 37°45' E 023°25'1531.1
2018-Apr-20 14:00N 37°56' E 023°38'1 1.6
2018-Apr-20 13:30N 37°57' E 023°39'3 6.6
2018-Apr-20 13:00N 37°57' E 023°35'1 0.1
2018-Apr-20 05:14N 37°58' E 023°34'311.2
2018-Apr-20 05:01N 37°56' E 023°37'1 2.9
2018-Apr-20 04:30N 37°57' E 023°39'  
2018-Apr-17 15:58N 37°57' E 023°39'1021.3
2018-Apr-17 15:31N 37°49' E 023°30'816.1
2018-Apr-17 15:00N 37°44' E 023°23'2 4.3
2018-Apr-17 14:29N 37°45' E 023°25'1430.0
2018-Apr-17 14:01N 37°56' E 023°36'0 0.8
2018-Apr-17 13:31N 37°55' E 023°36'1325.2
2018-Apr-17 12:58N 37°45' E 023°26'715.9
2018-Apr-17 12:31N 37°50' E 023°32'816.6
2018-Apr-17 12:01N 37°57' E 023°39'1223.1
2018-Apr-17 11:30N 37°48' E 023°29'815.0
2018-Apr-17 11:00N 37°43' E 023°21'3 6.4
2018-Apr-17 10:30N 37°45' E 023°25'1531.1
2018-Apr-17 10:00N 37°56' E 023°38'1 2.1
2018-Apr-17 09:30N 37°56' E 023°37'1427.7
2018-Apr-17 09:00N 37°45' E 023°26'4 8.5
2018-Apr-17 08:30N 37°48' E 023°29'1222.7
2018-Apr-17 08:00N 37°57' E 023°39'0 0.0
2018-Apr-16 17:15N 37°57' E 023°39'1 3.6
2018-Apr-16 17:01N 37°56' E 023°38'1631.5
2018-Apr-16 16:31N 37°41' E 023°32'1220.2
2018-Apr-16 15:55N 37°30' E 023°28'8 3.0
2018-Apr-16 13:17N 37°23' E 023°23'511.8
2018-Apr-16 12:53N 37°22' E 023°28'820.7
2018-Apr-16 12:30N 37°30' E 023°28'917.5
2018-Apr-16 12:00N 37°38' E 023°30'1633.1
2018-Apr-16 11:31N 37°54' E 023°36'4 7.0
2018-Apr-16 11:00N 37°57' E 023°39'0 0.0
2018-Apr-16 06:04N 37°57' E 023°39'0 0.0
2018-Apr-16 06:00N 37°57' E 023°39'1224.1
2018-Apr-16 05:31N 37°45' E 023°35'1625.7
2018-Apr-16 04:53N 37°31' E 023°26'1 0.1
2018-Apr-15 17:30N 37°32' E 023°26'1632.1
2018-Apr-15 17:00N 37°46' E 023°35'10 9.1
2018-Apr-15 15:52N 37°56' E 023°38'1129.5
2018-Apr-15 15:30N 37°48' E 023°28'816.0
2018-Apr-15 15:00N 37°43' E 023°21'3 7.1
2018-Apr-15 14:30N 37°45' E 023°25'16 3.7
2018-Apr-15 10:15N 37°56' E 023°38'31 8.0
2018-Apr-15 06:24N 37°26' E 023°33'818.2
2018-Apr-15 05:57N 37°32' E 023°25'1532.7
2018-Apr-15 05:31N 37°44' E 023°34'12 0.9
2018-Apr-14 15:56N 37°57' E 023°38'1228.2
2018-Apr-14 15:30N 37°48' E 023°28'714.3
2018-Apr-14 15:00N 37°43' E 023°21'4 7.6
2018-Apr-14 14:30N 37°45' E 023°25'1530.1
2018-Apr-14 14:00N 37°56' E 023°38'2 3.3
2018-Apr-14 13:30N 37°55' E 023°36'1416.2
2018-Apr-14 12:40N 37°45' E 023°25'429.5
2018-Apr-14 12:30N 37°48' E 023°28'1117.6
2018-Apr-14 11:52N 37°57' E 023°38'1028.0
2018-Apr-14 11:29N 37°49' E 023°29'917.9
2018-Apr-14 11:00N 37°43' E 023°21'4 7.0
2018-Apr-14 10:29N 37°45' E 023°25'1531.3
2018-Apr-14 10:00N 37°56' E 023°37'  
Track history (hours):
 
Tides and Currents Weather Stations Pressure Air Temp Water Temp Dewpoint Dewpoint Depression Visibility Wind Speed Wind Dir Waves Ship Positions

Flyingdolphin Xviii

Last reported at 2018-Apr-24 03:52 UTC. Time now 2018-Apr-24 12:49 UTC.
Position N 37°57' E 023°39'.

Length 36 m; draft 4 m.

Type: Ship. MMSI: 237023700.

Date/timePositionNaut miles runAvg speedWind from/ knotsBaromVisibWave heightAir tempDewpointWater temp
2018-Apr-24 03:52N 37°57' E 023°39'0 0.0
2018-Apr-24 03:30N 37°57' E 023°39'0 0.0
2018-Apr-23 16:01N 37°57' E 023°39'0 1.7
2018-Apr-23 16:00N 37°57' E 023°39'1020.6
2018-Apr-23 15:31N 37°49' E 023°30'917.3
2018-Apr-23 15:00N 37°44' E 023°21'4 7.8
2018-Apr-23 14:30N 37°45' E 023°26'1428.7
2018-Apr-23 14:01N 37°56' E 023°37'1 2.6
2018-Apr-23 13:30N 37°55' E 023°35'1316.4
2018-Apr-23 12:43N 37°45' E 023°26'525.3
2018-Apr-23 12:30N 37°49' E 023°29'1121.4
2018-Apr-23 12:00N 37°57' E 023°39'1121.2
2018-Apr-23 11:30N 37°49' E 023°29'917.9
2018-Apr-23 11:00N 37°43' E 023°21'4 7.8
2018-Apr-23 10:30N 37°45' E 023°25'1530.2
2018-Apr-23 10:00N 37°56' E 023°37'1 2.1
2018-Apr-23 09:30N 37°57' E 023°39'0 0.0
2018-Apr-22 16:10N 37°57' E 023°39'1 7.4
2018-Apr-22 16:01N 37°56' E 023°37'1529.5
2018-Apr-22 15:30N 37°45' E 023°26'4 8.2
2018-Apr-22 15:01N 37°43' E 023°21'918.3
2018-Apr-22 14:31N 37°49' E 023°29'1020.9
2018-Apr-22 14:01N 37°57' E 023°39'3 5.9
2018-Apr-22 13:30N 37°55' E 023°36'1316.5
2018-Apr-22 12:43N 37°45' E 023°25'628.8
2018-Apr-22 12:30N 37°49' E 023°30'1019.3
2018-Apr-22 11:59N 37°57' E 023°39'0 0.0
2018-Apr-22 11:30N 37°57' E 023°39'0 0.0
2018-Apr-22 07:03N 37°57' E 023°39'0 0.2
2018-Apr-22 07:00N 37°57' E 023°39'0 0.0
2018-Apr-22 06:31N 37°57' E 023°39'0 0.5
2018-Apr-22 06:00N 37°57' E 023°38'1326.1
2018-Apr-22 05:31N 37°44' E 023°34'1528.5
2018-Apr-22 04:59N 37°30' E 023°27'712.1
2018-Apr-22 04:22N 37°23' E 023°30'7 0.7
2018-Apr-21 17:06N 37°22' E 023°20'331.9
2018-Apr-21 17:00N 37°21' E 023°24'914.1
2018-Apr-21 16:23N 37°29' E 023°30'512.9
2018-Apr-21 16:01N 37°32' E 023°25'1530.5
2018-Apr-21 15:30N 37°48' E 023°28'1325.0
2018-Apr-21 15:00N 37°57' E 023°39'0 0.0
2018-Apr-21 09:55N 37°57' E 023°39'3 6.9
2018-Apr-21 09:30N 37°56' E 023°35'1318.2
2018-Apr-21 08:46N 37°45' E 023°25'829.6
2018-Apr-21 08:31N 37°52' E 023°29'917.6
2018-Apr-21 08:00N 37°57' E 023°39'1122.5
2018-Apr-21 07:31N 37°49' E 023°28'816.8
2018-Apr-21 07:00N 37°43' E 023°21'4 7.6
2018-Apr-21 06:30N 37°45' E 023°25'1530.3
2018-Apr-21 06:00N 37°56' E 023°38'1 2.6
2018-Apr-21 05:31N 37°56' E 023°36'1416.7
2018-Apr-21 04:41N 37°45' E 023°26'319.5
2018-Apr-21 04:30N 37°48' E 023°28'1224.9
2018-Apr-21 04:00N 37°57' E 023°39'0 0.0
2018-Apr-20 16:06N 37°57' E 023°39'0 0.0
2018-Apr-20 16:00N 37°57' E 023°39'1122.2
2018-Apr-20 15:31N 37°51' E 023°27'816.7
2018-Apr-20 15:00N 37°44' E 023°21'3 6.5
2018-Apr-20 14:30N 37°45' E 023°25'1531.1
2018-Apr-20 14:00N 37°56' E 023°38'1 1.6
2018-Apr-20 13:30N 37°57' E 023°39'3 6.6
2018-Apr-20 13:00N 37°57' E 023°35'1 0.1
2018-Apr-20 05:14N 37°58' E 023°34'311.2
2018-Apr-20 05:01N 37°56' E 023°37'1 2.9
2018-Apr-20 04:30N 37°57' E 023°39'  
2018-Apr-17 15:58N 37°57' E 023°39'1021.3
2018-Apr-17 15:31N 37°49' E 023°30'816.1
2018-Apr-17 15:00N 37°44' E 023°23'2 4.3
2018-Apr-17 14:29N 37°45' E 023°25'1430.0
2018-Apr-17 14:01N 37°56' E 023°36'0 0.8
2018-Apr-17 13:31N 37°55' E 023°36'1325.2
2018-Apr-17 12:58N 37°45' E 023°26'715.9
2018-Apr-17 12:31N 37°50' E 023°32'816.6
2018-Apr-17 12:01N 37°57' E 023°39'1223.1
2018-Apr-17 11:30N 37°48' E 023°29'815.0
2018-Apr-17 11:00N 37°43' E 023°21'3 6.4
2018-Apr-17 10:30N 37°45' E 023°25'1531.1
2018-Apr-17 10:00N 37°56' E 023°38'1 2.1
2018-Apr-17 09:30N 37°56' E 023°37'1427.7
2018-Apr-17 09:00N 37°45' E 023°26'4 8.5
2018-Apr-17 08:30N 37°48' E 023°29'1222.7
2018-Apr-17 08:00N 37°57' E 023°39'0 0.0
2018-Apr-16 17:15N 37°57' E 023°39'1 3.6
2018-Apr-16 17:01N 37°56' E 023°38'1631.5
2018-Apr-16 16:31N 37°41' E 023°32'1220.2
2018-Apr-16 15:55N 37°30' E 023°28'8 3.0
2018-Apr-16 13:17N 37°23' E 023°23'511.8
2018-Apr-16 12:53N 37°22' E 023°28'820.7
2018-Apr-16 12:30N 37°30' E 023°28'917.5
2018-Apr-16 12:00N 37°38' E 023°30'1633.1
2018-Apr-16 11:31N 37°54' E 023°36'4 7.0
2018-Apr-16 11:00N 37°57' E 023°39'0 0.0
2018-Apr-16 06:04N 37°57' E 023°39'0 0.0
2018-Apr-16 06:00N 37°57' E 023°39'1224.1
2018-Apr-16 05:31N 37°45' E 023°35'1625.7
2018-Apr-16 04:53N 37°31' E 023°26'1 0.1
2018-Apr-15 17:30N 37°32' E 023°26'1632.1
2018-Apr-15 17:00N 37°46' E 023°35'10 9.1
2018-Apr-15 15:52N 37°56' E 023°38'1129.5
2018-Apr-15 15:30N 37°48' E 023°28'816.0
2018-Apr-15 15:00N 37°43' E 023°21'3 7.1
2018-Apr-15 14:30N 37°45' E 023°25'16 3.7
2018-Apr-15 10:15N 37°56' E 023°38'31 8.0
2018-Apr-15 06:24N 37°26' E 023°33'818.2
2018-Apr-15 05:57N 37°32' E 023°25'1532.7
2018-Apr-15 05:31N 37°44' E 023°34'12 0.9
2018-Apr-14 15:56N 37°57' E 023°38'1228.2
2018-Apr-14 15:30N 37°48' E 023°28'714.3
2018-Apr-14 15:00N 37°43' E 023°21'4 7.6
2018-Apr-14 14:30N 37°45' E 023°25'1530.1
2018-Apr-14 14:00N 37°56' E 023°38'2 3.3
2018-Apr-14 13:30N 37°55' E 023°36'1416.2
2018-Apr-14 12:40N 37°45' E 023°25'429.5
2018-Apr-14 12:30N 37°48' E 023°28'1117.6
2018-Apr-14 11:52N 37°57' E 023°38'1028.0
2018-Apr-14 11:29N 37°49' E 023°29'917.9
2018-Apr-14 11:00N 37°43' E 023°21'4 7.0
2018-Apr-14 10:29N 37°45' E 023°25'1531.3
2018-Apr-14 10:00N 37°56' E 023°37'  

Dump ship's entire track history